createdAt,value
2018-04-17T00:01:15.047Z,3.80
2018-04-17T00:03:43.269Z,3.07
2018-04-17T00:06:10.779Z,3.13
2018-04-17T00:08:39.102Z,3.60
2018-04-17T00:11:06.614Z,3.63
2018-04-17T00:13:34.834Z,5.00
2018-04-17T00:16:02.334Z,4.80
2018-04-17T00:18:29.797Z,4.97
2018-04-17T00:20:57.291Z,4.33
2018-04-17T00:23:24.762Z,4.53
2018-04-17T00:25:52.271Z,4.80
2018-04-17T00:28:19.739Z,5.50
2018-04-17T00:30:48.001Z,5.07
2018-04-17T00:33:15.457Z,4.90
2018-04-17T00:35:42.961Z,4.53
2018-04-17T00:38:10.421Z,3.43
2018-04-17T00:40:37.914Z,4.10
2018-04-17T00:43:05.371Z,4.80
2018-04-17T00:45:32.857Z,4.20
2018-04-17T00:48:01.100Z,5.27
2018-04-17T00:50:29.372Z,3.90
2018-04-17T00:52:56.826Z,4.23
2018-04-17T00:55:24.332Z,3.90
2018-04-17T00:57:52.576Z,4.13
2018-04-17T01:00:20.071Z,3.90
2018-04-17T01:02:48.304Z,4.10
2018-04-17T01:05:15.804Z,4.20
2018-04-17T01:07:44.025Z,4.23
2018-04-17T01:10:11.546Z,4.40
2018-04-17T01:12:39.017Z,4.17
2018-04-17T01:15:06.498Z,4.77
2018-04-17T01:17:34.034Z,3.97
2018-04-17T01:20:01.518Z,3.90
2018-04-17T01:22:29.748Z,3.60
2018-04-17T01:24:57.250Z,4.30
2018-04-17T01:27:24.746Z,4.10
2018-04-17T01:29:52.965Z,3.83
2018-04-17T01:32:20.464Z,3.83
2018-04-17T01:34:47.925Z,3.60
2018-04-17T01:37:15.430Z,4.53
2018-04-17T01:39:42.898Z,5.40
2018-04-17T01:42:10.409Z,4.10
2018-04-17T01:44:38.630Z,4.37
2018-04-17T01:47:06.124Z,4.43
2018-04-17T01:49:33.605Z,4.33
2018-04-17T01:52:01.865Z,4.20
2018-04-17T01:54:29.326Z,4.70
2018-04-17T01:56:56.827Z,4.03
2018-04-17T01:59:24.290Z,4.20
2018-04-17T02:01:51.796Z,4.40
2018-04-17T02:04:19.255Z,4.77
2018-04-17T02:06:46.754Z,3.77
2018-04-17T02:09:14.227Z,4.03
2018-04-17T02:11:41.722Z,5.33
2018-04-17T02:14:09.192Z,4.93
2018-04-17T02:16:36.656Z,4.60
2018-04-17T02:19:04.921Z,5.07
2018-04-17T02:21:32.396Z,4.83
2018-04-17T02:24:00.654Z,4.70
2018-04-17T02:26:28.117Z,3.63
2018-04-17T02:28:56.394Z,4.23
2018-04-17T02:31:24.646Z,4.63
2018-04-17T02:33:52.125Z,5.07
2018-04-17T02:36:19.590Z,4.43
2018-04-17T02:38:47.855Z,6.13
2018-04-17T02:41:15.330Z,6.13
2018-04-17T02:43:43.578Z,4.87
2018-04-17T02:46:11.057Z,4.70
2018-04-17T02:48:39.309Z,4.50
2018-04-17T02:51:06.784Z,4.90
2018-04-17T02:53:34.283Z,4.80
2018-04-17T02:56:01.739Z,5.63
2018-04-17T02:58:29.204Z,5.03
2018-04-17T03:00:56.822Z,5.60
2018-04-17T03:03:25.074Z,5.10
2018-04-17T03:05:52.556Z,5.20
2018-04-17T03:08:20.799Z,4.63
2018-04-17T03:10:48.291Z,5.13
2018-04-17T03:13:16.535Z,6.00
2018-04-17T03:15:44.022Z,5.40
2018-04-17T03:18:12.244Z,6.17
2018-04-17T03:20:39.741Z,7.03
2018-04-17T03:23:07.217Z,5.43
2018-04-17T03:25:35.491Z,5.97
2018-04-17T03:28:03.718Z,6.33
2018-04-17T03:30:31.229Z,7.27
2018-04-17T03:32:59.459Z,6.07
2018-04-17T03:35:26.933Z,6.90
2018-04-17T03:37:54.426Z,5.93
2018-04-17T03:40:22.686Z,4.73
2018-04-17T03:42:50.951Z,5.63
2018-04-17T03:45:18.428Z,5.87
2018-04-17T03:47:46.704Z,8.87
2018-04-17T03:50:14.947Z,6.00
2018-04-17T03:52:42.448Z,5.70
2018-04-17T03:55:09.901Z,5.50
2018-04-17T03:57:37.389Z,5.93
2018-04-17T04:00:04.889Z,5.70
2018-04-17T04:02:32.380Z,5.50
2018-04-17T04:04:59.868Z,5.90
2018-04-17T04:07:27.360Z,5.97
2018-04-17T04:09:54.814Z,5.40
2018-04-17T04:12:22.331Z,6.20
2018-04-17T04:14:49.831Z,6.27
2018-04-17T04:17:29.140Z,5.90
2018-04-17T04:20:08.555Z,6.63
2018-04-17T04:22:47.999Z,7.63
2018-04-17T04:25:28.050Z,6.80
2018-04-17T04:27:55.543Z,6.33
2018-04-17T04:30:23.005Z,6.77
2018-04-17T04:32:50.506Z,7.53
2018-04-17T04:35:17.973Z,7.40
2018-04-17T04:37:45.457Z,8.50
2018-04-17T04:40:12.964Z,13.83
2018-04-17T04:42:41.213Z,12.00
2018-04-17T04:45:08.746Z,10.77
2018-04-17T04:47:36.216Z,9.77
2018-04-17T04:50:03.720Z,8.93
2018-04-17T04:52:31.952Z,7.27
2018-04-17T04:54:59.460Z,8.10
2018-04-17T04:57:26.919Z,8.10
2018-04-17T04:59:54.413Z,9.20
2018-04-17T05:02:21.901Z,9.30
2018-04-17T05:04:49.411Z,8.70
2018-04-17T05:07:16.875Z,9.40
2018-04-17T05:09:44.377Z,8.53
2018-04-17T05:12:11.890Z,10.77
2018-04-17T05:14:39.385Z,11.67
2018-04-17T05:17:06.894Z,13.93
2018-04-17T05:19:34.367Z,14.60
2018-04-17T05:22:01.876Z,11.17
2018-04-17T05:24:30.114Z,9.97
2018-04-17T05:26:57.610Z,8.10
2018-04-17T05:29:25.880Z,8.80
2018-04-17T05:31:53.357Z,8.20
2018-04-17T05:34:21.630Z,8.97
2018-04-17T05:36:49.893Z,9.20
2018-04-17T05:39:18.130Z,9.40
2018-04-17T05:41:45.639Z,9.40
2018-04-17T05:44:13.877Z,9.97
2018-04-17T05:46:41.388Z,8.57
2018-04-17T05:49:08.879Z,8.37
2018-04-17T05:51:36.423Z,10.97
2018-04-17T05:54:03.890Z,9.40
2018-04-17T05:56:31.390Z,8.73
2018-04-17T05:58:58.857Z,9.47
2018-04-17T06:01:27.108Z,8.97
2018-04-17T06:03:54.627Z,7.83
2018-04-17T06:06:22.102Z,8.40
2018-04-17T06:08:49.594Z,8.67
2018-04-17T06:11:17.071Z,8.70
2018-04-17T06:13:44.630Z,8.80
2018-04-17T06:16:12.078Z,9.73
2018-04-17T06:18:40.346Z,8.40
2018-04-17T06:21:07.849Z,9.90
2018-04-17T06:23:35.379Z,8.37
2018-04-17T06:26:02.882Z,8.90
2018-04-17T06:28:30.377Z,8.33
2018-04-17T06:30:57.838Z,9.33
2018-04-17T06:33:26.146Z,8.17
2018-04-17T06:35:53.647Z,7.27
2018-04-17T06:38:21.157Z,7.27
2018-04-17T06:40:48.622Z,7.80
2018-04-17T06:43:16.126Z,7.40
2018-04-17T06:45:43.597Z,8.10
2018-04-17T06:48:11.170Z,8.30
2018-04-17T06:50:39.408Z,7.90
2018-04-17T06:53:06.891Z,7.57
2018-04-17T06:55:34.400Z,7.03
2018-04-17T06:58:01.871Z,6.77
2018-04-17T07:00:29.385Z,7.57
2018-04-17T07:02:57.614Z,7.07
2018-04-17T07:05:25.119Z,7.40
2018-04-17T07:07:53.351Z,6.50
2018-04-17T07:10:20.873Z,6.43
2018-04-17T07:12:48.354Z,6.70
2018-04-17T07:15:15.850Z,5.73
2018-04-17T07:17:43.324Z,6.77
2018-04-17T07:20:11.632Z,5.93
2018-04-17T07:22:39.106Z,7.07
2018-04-17T07:25:06.629Z,6.57
2018-04-17T07:27:34.136Z,7.70
2018-04-17T07:30:01.649Z,6.50
2018-04-17T07:32:29.173Z,7.00
2018-04-17T07:34:56.687Z,5.67
2018-04-17T07:37:24.196Z,5.77
2018-04-17T07:39:51.699Z,5.70
2018-04-17T07:42:19.174Z,6.03
2018-04-17T07:44:46.689Z,5.23
2018-04-17T07:47:23.910Z,4.23
2018-04-17T07:49:52.248Z,5.07
2018-04-17T07:52:20.503Z,12.80
2018-04-17T07:54:48.031Z,5.00
2018-04-17T07:57:15.497Z,4.70
2018-04-17T07:59:43.007Z,5.80
2018-04-17T08:02:11.296Z,5.07
2018-04-17T08:04:38.881Z,5.30
2018-04-17T08:07:06.354Z,5.30
2018-04-17T08:09:33.814Z,5.85
2018-04-17T08:12:01.312Z,4.82
2018-04-17T08:14:28.783Z,4.60
2018-04-17T08:16:56.318Z,4.68
2018-04-17T08:19:24.572Z,4.65
2018-04-17T08:21:52.090Z,4.97
2018-04-17T08:24:19.566Z,5.15
2018-04-17T08:26:47.075Z,3.70
2018-04-17T08:29:15.315Z,3.62
2018-04-17T08:31:42.823Z,4.15
2018-04-17T08:34:10.294Z,4.07
2018-04-17T08:36:37.784Z,3.83
2018-04-17T08:39:06.125Z,4.12
2018-04-17T08:41:33.630Z,4.45
2018-04-17T08:44:01.143Z,4.15
2018-04-17T08:46:28.634Z,4.65
2018-04-17T08:48:56.132Z,4.70
2018-04-17T08:51:24.398Z,5.12
2018-04-17T08:53:51.872Z,6.12
2018-04-17T08:56:19.395Z,6.55
2018-04-17T08:58:46.878Z,5.65
2018-04-17T09:01:15.192Z,5.85
2018-04-17T09:03:42.667Z,5.47
2018-04-17T09:06:10.184Z,6.10
2018-04-17T09:08:38.427Z,6.28
2018-04-17T09:11:05.999Z,6.40
2018-04-17T09:13:33.484Z,6.60
2018-04-17T09:16:00.992Z,6.22
2018-04-17T09:18:28.509Z,9.90
2018-04-17T09:20:56.006Z,11.18
2018-04-17T09:23:23.510Z,9.75
2018-04-17T09:25:50.996Z,10.13
2018-04-17T09:28:18.519Z,9.05
2018-04-17T09:30:46.769Z,10.55
2018-04-17T09:33:14.349Z,9.00
2018-04-17T09:35:41.793Z,6.75
2018-04-17T09:38:09.311Z,6.50
2018-04-17T09:40:36.798Z,6.25
2018-04-17T09:43:04.323Z,6.75
2018-04-17T09:45:31.855Z,5.43
2018-04-17T09:47:59.414Z,3.92
2018-04-17T09:50:26.874Z,3.40
2018-04-17T09:52:54.392Z,3.95
2018-04-17T09:55:21.885Z,3.20
2018-04-17T09:57:49.396Z,3.33
2018-04-17T10:00:16.877Z,3.70
2018-04-17T10:02:44.389Z,3.10
2018-04-17T10:05:11.871Z,3.03
2018-04-17T10:07:39.400Z,3.58
2018-04-17T10:10:06.884Z,3.45
2018-04-17T10:12:34.393Z,3.47
2018-04-17T10:15:01.898Z,3.35
2018-04-17T10:17:29.378Z,4.55
2018-04-17T10:19:56.913Z,4.00
2018-04-17T10:22:24.401Z,3.22
2018-04-17T10:24:52.686Z,2.33
2018-04-17T10:27:20.935Z,3.08
2018-04-17T10:29:48.462Z,3.10
2018-04-17T10:32:15.972Z,3.30
2018-04-17T10:34:43.482Z,3.17
2018-04-17T10:37:10.970Z,2.95
2018-04-17T10:39:38.484Z,3.65
2018-04-17T10:42:05.946Z,3.35
2018-04-17T10:44:33.477Z,3.55
2018-04-17T10:47:00.952Z,3.67
2018-04-17T10:49:28.462Z,4.40
2018-04-17T10:51:55.933Z,5.05
2018-04-17T10:54:23.438Z,4.00
2018-04-17T10:56:50.917Z,3.33
2018-04-17T10:59:18.440Z,3.47
2018-04-17T11:01:45.911Z,3.67
2018-04-17T11:04:13.441Z,3.70
2018-04-17T11:06:41.711Z,3.95
2018-04-17T11:09:09.955Z,3.92
2018-04-17T11:11:37.468Z,3.65
2018-04-17T11:14:04.960Z,3.90
2018-04-17T11:16:32.479Z,3.87
2018-04-17T11:18:59.948Z,3.60
2018-04-17T11:21:27.472Z,3.83
2018-04-17T11:23:55.775Z,3.60
2018-04-17T11:26:23.282Z,3.95
2018-04-17T11:28:50.768Z,4.32
2018-04-17T11:31:19.036Z,3.97
2018-04-17T11:33:46.759Z,4.07
2018-04-17T11:36:14.271Z,3.62
2018-04-17T11:38:41.747Z,4.00
2018-04-17T11:41:09.280Z,3.92
2018-04-17T11:43:36.748Z,4.15
2018-04-17T11:46:05.093Z,4.05
2018-04-17T11:48:32.566Z,3.50
2018-04-17T11:51:00.104Z,4.47
2018-04-17T11:53:27.575Z,3.55
2018-04-17T11:55:55.082Z,3.55
2018-04-17T11:58:22.603Z,3.53
2018-04-17T12:00:50.852Z,3.50
2018-04-17T12:03:18.392Z,3.87
2018-04-17T12:05:46.039Z,3.62
2018-04-17T12:08:13.550Z,3.33
2018-04-17T12:10:41.052Z,3.58
2018-04-17T12:13:08.555Z,3.70
2018-04-17T12:15:36.057Z,3.58
2018-04-17T12:18:03.558Z,3.40
2018-04-17T12:20:31.035Z,4.05
2018-04-17T12:22:58.533Z,3.10
2018-04-17T12:25:26.005Z,3.70
2018-04-17T12:27:53.535Z,3.85
2018-04-17T12:30:21.788Z,3.78
2018-04-17T12:32:49.318Z,3.80
2018-04-17T12:35:16.796Z,3.45
2018-04-17T12:37:44.275Z,3.28
2018-04-17T12:40:12.547Z,3.75
2018-04-17T12:42:40.036Z,3.70
2018-04-17T12:45:07.557Z,3.70
2018-04-17T12:47:35.030Z,3.40
2018-04-17T12:50:02.544Z,3.15
2018-04-17T12:52:30.070Z,3.78
2018-04-17T12:54:57.577Z,3.62
2018-04-17T12:57:25.065Z,3.33
2018-04-17T12:59:53.326Z,3.53
2018-04-17T13:02:20.790Z,3.17
2018-04-17T13:04:49.172Z,3.58
2018-04-17T13:07:17.419Z,3.22
2018-04-17T13:09:44.935Z,3.22
2018-04-17T13:12:12.411Z,3.22
2018-04-17T13:14:39.916Z,3.08
2018-04-17T13:17:08.173Z,3.20
2018-04-17T13:19:35.684Z,3.20
2018-04-17T13:22:03.175Z,2.92
2018-04-17T13:24:30.704Z,3.30
2018-04-17T13:26:58.185Z,2.95
2018-04-17T13:29:25.700Z,2.78
2018-04-17T13:31:53.963Z,3.08
2018-04-17T13:34:22.235Z,3.00
2018-04-17T13:36:49.705Z,3.42
2018-04-17T13:39:17.184Z,3.05
2018-04-17T13:41:44.693Z,3.33
2018-04-17T13:44:12.192Z,2.97
2018-04-17T13:46:39.712Z,3.05
2018-04-17T13:49:07.254Z,2.60
2018-04-17T13:51:34.757Z,2.62
2018-04-17T13:54:02.982Z,2.83
2018-04-17T13:56:30.478Z,3.22
2018-04-17T13:58:58.722Z,3.03
2018-04-17T14:01:26.232Z,2.58
2018-04-17T14:03:53.698Z,2.50
2018-04-17T14:06:21.230Z,2.70
2018-04-17T14:08:49.480Z,3.60
2018-04-17T14:11:16.967Z,4.18
2018-04-17T14:13:45.272Z,2.60
2018-04-17T14:16:12.761Z,2.70
2018-04-17T14:18:40.288Z,2.85
2018-04-17T14:21:07.804Z,2.78
2018-04-17T14:23:35.292Z,2.25
2018-04-17T14:26:02.811Z,2.47
2018-04-17T14:28:30.296Z,2.05
2018-04-17T14:30:58.567Z,2.50
2018-04-17T14:33:26.832Z,2.60
2018-04-17T14:35:54.979Z,2.50
2018-04-17T14:38:22.459Z,3.47
2018-04-17T14:40:49.981Z,2.35
2018-04-17T14:43:17.450Z,2.40
2018-04-17T14:45:44.965Z,2.22
2018-04-17T14:48:12.629Z,2.78
2018-04-17T14:50:40.156Z,2.58
2018-04-17T14:53:07.648Z,2.58
2018-04-17T14:55:35.156Z,2.80
2018-04-17T14:58:02.667Z,2.67
2018-04-17T15:00:30.151Z,3.40
2018-04-17T15:02:57.661Z,2.25
2018-04-17T15:05:25.886Z,4.53
2018-04-17T15:07:53.412Z,3.72
2018-04-17T15:10:20.894Z,2.15
2018-04-17T15:12:48.411Z,2.75
2018-04-17T15:15:15.948Z,2.37
2018-04-17T15:17:43.440Z,2.10
2018-04-17T15:20:11.707Z,2.40
2018-04-17T15:22:39.229Z,2.20
2018-04-17T15:25:06.698Z,2.03
2018-04-17T15:27:34.204Z,2.50
2018-04-17T15:30:01.681Z,2.00
2018-04-17T15:32:29.251Z,1.77
2018-04-17T15:34:56.759Z,2.30
2018-04-17T15:37:25.042Z,2.13
2018-04-17T15:39:52.571Z,2.53
2018-04-17T15:42:20.071Z,2.00
2018-04-17T15:44:47.564Z,2.03
2018-04-17T15:47:15.086Z,2.80
2018-04-17T15:49:42.589Z,2.50
2018-04-17T15:52:10.090Z,2.27
2018-04-17T15:54:37.631Z,1.90
2018-04-17T15:57:05.119Z,1.87
2018-04-17T15:59:32.617Z,2.03
2018-04-17T16:02:00.153Z,2.47
2018-04-17T16:04:27.672Z,2.30
2018-04-17T16:06:55.171Z,2.17
2018-04-17T16:09:22.674Z,2.40
2018-04-17T16:11:50.948Z,2.23
2018-04-17T16:14:18.463Z,2.60
2018-04-17T16:16:45.961Z,2.50
2018-04-17T16:19:13.467Z,1.97
2018-04-17T16:21:40.989Z,2.40
2018-04-17T16:24:08.504Z,2.40
2018-04-17T16:26:36.009Z,2.63
2018-04-17T16:29:04.274Z,1.90
2018-04-17T16:31:31.780Z,1.83
2018-04-17T16:33:59.310Z,1.97
2018-04-17T16:36:27.617Z,1.80
2018-04-17T16:38:55.127Z,2.10
2018-04-17T16:41:22.602Z,2.67
2018-04-17T16:43:50.890Z,2.80
2018-04-17T16:46:18.359Z,2.00
2018-04-17T16:48:45.873Z,2.00
2018-04-17T16:51:13.451Z,2.20
2018-04-17T16:53:41.855Z,2.00
2018-04-17T16:56:09.352Z,1.80
2018-04-17T16:58:37.699Z,2.10
2018-04-17T17:01:05.178Z,1.73
2018-04-17T17:03:32.677Z,1.70
2018-04-17T17:06:00.150Z,1.80
2018-04-17T17:08:28.455Z,1.73
2018-04-17T17:10:55.935Z,1.90
2018-04-17T17:13:23.421Z,1.80
2018-04-17T17:15:50.912Z,1.80
2018-04-17T17:18:18.399Z,1.47
2018-04-17T17:20:46.383Z,1.50
2018-04-17T17:23:13.900Z,1.97
2018-04-17T17:25:41.437Z,2.27
2018-04-17T17:28:09.707Z,2.07
2018-04-17T17:30:38.001Z,1.90
2018-04-17T17:33:06.241Z,1.77
2018-04-17T17:35:33.747Z,1.70
2018-04-17T17:38:01.538Z,1.97
2018-04-17T17:40:29.591Z,2.50
2018-04-17T17:42:57.083Z,3.20
2018-04-17T17:45:24.610Z,3.87
2018-04-17T17:47:52.075Z,3.23
2018-04-17T17:50:19.592Z,2.73
2018-04-17T17:52:47.865Z,3.17
2018-04-17T17:55:16.148Z,3.50
2018-04-17T17:57:43.634Z,2.50
2018-04-17T18:00:11.174Z,2.40
2018-04-17T18:02:38.664Z,2.40
2018-04-17T18:05:06.940Z,2.80
2018-04-17T18:07:34.463Z,2.80
2018-04-17T18:10:02.756Z,2.70
2018-04-17T18:12:30.251Z,2.70
2018-04-17T18:14:57.824Z,2.27
2018-04-17T18:17:25.317Z,2.00
2018-04-17T18:19:52.878Z,3.10
2018-04-17T18:22:20.370Z,2.60
2018-04-17T18:24:47.845Z,2.70
2018-04-17T18:27:15.396Z,2.33
2018-04-17T18:29:42.868Z,2.20
2018-04-17T18:32:10.363Z,2.50
2018-04-17T18:34:37.853Z,2.20
2018-04-17T18:37:05.378Z,2.17
2018-04-17T18:39:33.613Z,2.20
2018-04-17T18:42:01.113Z,2.20
2018-04-17T18:44:28.752Z,2.80
2018-04-17T18:46:56.331Z,2.60
2018-04-17T18:49:23.749Z,2.03
2018-04-17T18:51:51.261Z,2.60
2018-04-17T18:54:18.739Z,2.10
2018-04-17T18:56:46.246Z,2.10
2018-04-17T18:59:14.516Z,2.40
2018-04-17T19:01:42.053Z,2.20
2018-04-17T19:04:09.527Z,3.07
2018-04-17T19:06:37.042Z,2.40
2018-04-17T19:09:05.275Z,2.90
2018-04-17T19:11:33.543Z,2.43
2018-04-17T19:14:01.063Z,3.00
2018-04-17T19:16:28.606Z,2.87
2018-04-17T19:18:56.823Z,2.83
2018-04-17T19:21:24.542Z,2.50
2018-04-17T19:23:52.100Z,3.03
2018-04-17T19:26:19.604Z,2.70
2018-04-17T19:28:47.085Z,2.50
2018-04-17T19:31:15.370Z,2.63
2018-04-17T19:33:43.606Z,2.70
2018-04-17T19:36:11.117Z,2.70
2018-04-17T19:38:38.606Z,2.70
2018-04-17T19:41:06.107Z,2.60
2018-04-17T19:43:34.345Z,2.30
2018-04-17T19:46:01.861Z,2.27
2018-04-17T19:48:29.363Z,2.50
2018-04-17T19:50:56.971Z,2.87
2018-04-17T19:53:24.427Z,2.77
2018-04-17T19:55:52.719Z,2.90
2018-04-17T19:58:20.256Z,2.87
2018-04-17T20:00:48.504Z,2.67
2018-04-17T20:03:16.019Z,3.20
2018-04-17T20:05:44.343Z,2.60
2018-04-17T20:08:11.879Z,4.73
2018-04-17T20:10:39.387Z,8.50
2018-04-17T20:13:07.662Z,4.80
2018-04-17T20:15:35.903Z,4.70
2018-04-17T20:18:03.433Z,3.27
2018-04-17T20:20:30.963Z,3.63
2018-04-17T20:22:58.453Z,3.00
2018-04-17T20:25:25.939Z,2.80
2018-04-17T20:27:54.349Z,2.77
2018-04-17T20:30:22.610Z,3.17
2018-04-17T20:32:50.095Z,2.80
2018-04-17T20:35:17.611Z,3.23
2018-04-17T20:37:45.087Z,3.17
2018-04-17T20:40:12.612Z,2.93
2018-04-17T20:42:40.070Z,3.50
2018-04-17T20:45:07.610Z,3.37
2018-04-17T20:47:35.074Z,3.20
2018-04-17T20:50:02.660Z,4.77
2018-04-17T20:52:30.163Z,4.80
2018-04-17T20:54:57.668Z,6.10
2018-04-17T20:57:25.157Z,7.07
2018-04-17T20:59:53.442Z,8.50
2018-04-17T21:02:21.681Z,7.57
2018-04-17T21:04:49.153Z,7.03
2018-04-17T21:07:16.666Z,5.50
2018-04-17T21:09:44.133Z,4.40
2018-04-17T21:12:11.693Z,4.43
2018-04-17T21:14:39.165Z,5.73
2018-04-17T21:17:06.670Z,7.27
2018-04-17T21:19:34.932Z,6.83
2018-04-17T21:22:03.775Z,5.53
2018-04-17T21:24:31.240Z,5.20
2018-04-17T21:26:58.766Z,5.63
2018-04-17T21:29:26.255Z,5.00
2018-04-17T21:31:53.747Z,5.80
2018-04-17T21:34:21.244Z,5.73
2018-04-17T21:36:48.729Z,6.83
2018-04-17T21:39:16.244Z,5.73
2018-04-17T21:41:44.489Z,5.30
2018-04-17T21:44:11.988Z,4.80
2018-04-17T21:46:39.486Z,8.00
2018-04-17T21:49:07.019Z,6.37
2018-04-17T21:51:34.504Z,5.87
2018-04-17T21:54:02.002Z,5.70
2018-04-17T21:56:30.240Z,5.53
2018-04-17T21:58:57.757Z,4.43
2018-04-17T22:01:29.182Z,5.27
2018-04-17T22:03:57.486Z,5.27
2018-04-17T22:06:25.007Z,4.97
2018-04-17T22:08:52.544Z,4.40
2018-04-17T22:11:20.019Z,5.10
2018-04-17T22:13:47.507Z,4.40
2018-04-17T22:16:15.763Z,4.43
2018-04-17T22:18:44.015Z,5.30
2018-04-17T22:21:11.564Z,4.87
2018-04-17T22:23:39.090Z,4.70
2018-04-17T22:26:07.142Z,4.37
2018-04-17T22:28:35.373Z,3.43
2018-04-17T22:31:02.892Z,3.73
2018-04-17T22:33:30.387Z,4.37
2018-04-17T22:35:58.649Z,4.10
2018-04-17T22:38:26.117Z,4.10
2018-04-17T22:40:53.619Z,3.97
2018-04-17T22:43:21.860Z,4.60
2018-04-17T22:45:49.387Z,5.27
2018-04-17T22:48:16.877Z,5.43
2018-04-17T22:50:44.370Z,4.80
2018-04-17T22:53:12.627Z,4.83
2018-04-17T22:55:40.132Z,4.73
2018-04-17T22:58:07.665Z,4.07
2018-04-17T23:00:35.174Z,3.90
2018-04-17T23:03:02.650Z,4.30
2018-04-17T23:05:30.097Z,4.17
2018-04-17T23:07:57.591Z,4.40
2018-04-17T23:10:26.049Z,4.27
2018-04-17T23:12:53.550Z,4.20
2018-04-17T23:15:21.031Z,4.20
2018-04-17T23:17:48.528Z,4.30
2018-04-17T23:20:16.025Z,4.53
2018-04-17T23:22:43.522Z,4.07
2018-04-17T23:25:10.998Z,3.50
2018-04-17T23:27:38.488Z,4.30
2018-04-17T23:30:05.945Z,4.50
2018-04-17T23:32:33.447Z,3.67
2018-04-17T23:35:00.915Z,3.70
2018-04-17T23:37:29.187Z,3.77
2018-04-17T23:39:56.655Z,3.90
2018-04-17T23:42:24.157Z,4.07
2018-04-17T23:44:51.671Z,4.03
2018-04-17T23:47:19.135Z,4.10
2018-04-17T23:49:46.680Z,3.60
2018-04-17T23:52:14.158Z,4.57
2018-04-17T23:54:41.655Z,3.63
2018-04-17T23:57:09.130Z,4.53
2018-04-17T23:59:36.618Z,4.07
